createdAt,value
2018-05-29T00:00:43.118Z,16.93
2018-05-29T00:03:13.537Z,16.03
2018-05-29T00:05:42.793Z,15.83
2018-05-29T00:08:11.946Z,14.97
2018-05-29T00:10:41.933Z,17.73
2018-05-29T00:13:10.879Z,15.43
2018-05-29T00:15:39.506Z,16.47
2018-05-29T00:18:08.336Z,17.53
2018-05-29T00:20:36.746Z,15.73
2018-05-29T00:23:05.189Z,18.03
2018-05-29T00:25:33.832Z,17.20
2018-05-29T00:28:03.186Z,19.23
2018-05-29T00:30:31.811Z,18.40
2018-05-29T00:33:01.578Z,19.30
2018-05-29T00:35:30.011Z,18.90
2018-05-29T00:37:58.536Z,20.63
2018-05-29T00:40:27.166Z,20.67
2018-05-29T00:42:55.588Z,20.90
2018-05-29T00:45:23.742Z,21.33
2018-05-29T00:47:52.220Z,20.90
2018-05-29T00:50:21.060Z,21.47
2018-05-29T00:52:49.690Z,22.33
2018-05-29T00:55:30.124Z,22.07
2018-05-29T00:57:59.342Z,22.03
2018-05-29T01:00:27.541Z,22.53
2018-05-29T01:02:55.731Z,23.00
2018-05-29T01:05:24.958Z,22.60
2018-05-29T01:07:55.259Z,23.13
2018-05-29T01:10:23.686Z,24.17
2018-05-29T01:12:52.591Z,23.90
2018-05-29T01:15:20.792Z,23.27
2018-05-29T01:17:49.257Z,24.40
2018-05-29T01:20:17.783Z,23.30
2018-05-29T01:22:46.384Z,23.83
2018-05-29T01:25:14.604Z,25.47
2018-05-29T01:27:43.255Z,24.27
2018-05-29T01:30:11.885Z,24.87
2018-05-29T01:32:40.923Z,25.90
2018-05-29T01:35:09.564Z,24.23
2018-05-29T01:37:38.089Z,24.67
2018-05-29T01:40:07.243Z,25.00
2018-05-29T01:42:35.755Z,24.07
2018-05-29T01:45:04.607Z,25.43
2018-05-29T01:47:33.237Z,23.50
2018-05-29T01:50:04.273Z,24.57
2018-05-29T01:52:32.900Z,25.50
2018-05-29T01:55:01.391Z,23.73
2018-05-29T01:57:29.582Z,23.70
2018-05-29T01:59:58.023Z,24.47
2018-05-29T02:02:26.442Z,25.87
2018-05-29T02:04:54.902Z,25.67
2018-05-29T02:07:24.576Z,25.50
2018-05-29T02:09:52.727Z,26.50
2018-05-29T02:12:21.838Z,25.90
2018-05-29T02:14:50.813Z,26.47
2018-05-29T02:17:19.410Z,27.97
2018-05-29T02:19:47.832Z,27.90
2018-05-29T02:22:16.426Z,28.80
2018-05-29T02:24:44.623Z,27.87
2018-05-29T02:27:12.814Z,29.40
2018-05-29T02:29:41.832Z,30.03
2018-05-29T02:32:10.359Z,29.53
2018-05-29T02:34:38.881Z,29.63
2018-05-29T02:37:07.512Z,29.53
2018-05-29T02:39:35.667Z,29.07
2018-05-29T02:42:04.249Z,30.73
2018-05-29T02:44:32.634Z,29.63
2018-05-29T02:47:01.834Z,31.00
2018-05-29T02:49:30.455Z,28.73
2018-05-29T02:51:58.615Z,31.40
2018-05-29T02:54:27.703Z,32.33
2018-05-29T02:56:56.312Z,31.73
2018-05-29T02:59:24.974Z,30.10
2018-05-29T03:01:53.467Z,32.33
2018-05-29T03:04:21.657Z,32.60
2018-05-29T03:06:50.133Z,32.67
2018-05-29T03:09:18.871Z,31.83
2018-05-29T03:11:47.259Z,32.00
2018-05-29T03:14:15.455Z,32.37
2018-05-29T03:16:43.923Z,32.43
2018-05-29T03:19:12.657Z,31.37
2018-05-29T03:21:41.923Z,33.00
2018-05-29T03:24:10.112Z,33.20
2018-05-29T03:26:38.318Z,32.77
2018-05-29T03:29:06.970Z,33.20
2018-05-29T03:31:35.563Z,32.53
2018-05-29T03:34:03.759Z,33.70
2018-05-29T03:36:33.005Z,33.40
2018-05-29T03:39:01.336Z,32.63
2018-05-29T03:41:30.527Z,29.80
2018-05-29T03:44:01.258Z,32.13
2018-05-29T03:46:29.415Z,31.50
2018-05-29T03:48:57.998Z,32.73
2018-05-29T03:51:27.200Z,29.97
2018-05-29T03:53:57.243Z,32.10
2018-05-29T03:56:26.187Z,32.67
2018-05-29T03:58:55.336Z,31.17
2018-05-29T04:01:23.654Z,30.23
2018-05-29T04:03:53.015Z,34.07
2018-05-29T04:06:21.503Z,33.40
2018-05-29T04:08:50.367Z,32.73
2018-05-29T04:11:18.563Z,32.47
2018-05-29T04:13:47.186Z,34.60
2018-05-29T04:16:15.746Z,32.17
2018-05-29T04:18:44.169Z,34.70
2018-05-29T04:21:12.589Z,33.30
2018-05-29T04:23:40.747Z,33.30
2018-05-29T04:26:09.433Z,32.77
2018-05-29T04:28:37.962Z,30.13
2018-05-29T04:31:06.343Z,32.60
2018-05-29T04:33:34.543Z,32.43
2018-05-29T04:36:03.014Z,31.47
2018-05-29T04:38:31.179Z,30.87
2018-05-29T04:41:01.318Z,33.67
2018-05-29T04:43:29.948Z,30.83
2018-05-29T04:45:58.369Z,34.53
2018-05-29T04:48:26.658Z,33.17
2018-05-29T04:50:55.107Z,32.97
2018-05-29T04:53:23.262Z,33.07
2018-05-29T04:55:51.800Z,30.43
2018-05-29T04:58:20.779Z,30.07
2018-05-29T05:00:49.419Z,33.20
2018-05-29T05:03:17.585Z,32.60
2018-05-29T05:05:46.687Z,33.10
2018-05-29T05:08:15.205Z,30.67
2018-05-29T05:10:43.627Z,31.60
2018-05-29T05:13:12.048Z,29.63
2018-05-29T05:15:40.195Z,28.57
2018-05-29T05:18:09.258Z,32.23
2018-05-29T05:20:38.450Z,31.30
2018-05-29T05:23:06.950Z,29.53
2018-05-29T05:25:35.319Z,32.77
2018-05-29T05:28:04.343Z,28.47
2018-05-29T05:30:32.990Z,31.13
2018-05-29T05:33:02.540Z,28.70
2018-05-29T05:35:31.182Z,32.47
2018-05-29T05:37:59.334Z,27.80
2018-05-29T05:40:28.025Z,29.87
2018-05-29T05:42:56.203Z,29.07
2018-05-29T05:45:24.394Z,28.57
2018-05-29T05:47:53.079Z,29.30
2018-05-29T05:50:22.231Z,30.70
2018-05-29T05:52:52.106Z,30.73
2018-05-29T05:55:20.317Z,31.27
2018-05-29T05:57:48.853Z,30.50
2018-05-29T06:00:17.019Z,31.17
2018-05-29T06:02:45.207Z,29.07
2018-05-29T06:05:13.959Z,29.37
2018-05-29T06:07:42.058Z,29.13
2018-05-29T06:10:10.251Z,29.93
2018-05-29T06:12:39.211Z,29.83
2018-05-29T06:15:07.435Z,28.07
2018-05-29T06:17:36.530Z,25.87
2018-05-29T06:20:05.166Z,24.47
2018-05-29T06:22:33.318Z,24.17
2018-05-29T06:25:01.906Z,23.10
2018-05-29T06:27:30.535Z,21.13
2018-05-29T06:29:59.164Z,21.40
2018-05-29T06:32:27.407Z,20.50
2018-05-29T06:34:55.908Z,20.07
2018-05-29T06:37:24.054Z,18.43
2018-05-29T06:39:52.252Z,19.13
2018-05-29T06:42:20.506Z,18.97
2018-05-29T06:44:49.280Z,17.37
2018-05-29T06:47:17.435Z,15.23
2018-05-29T06:49:46.121Z,15.40
2018-05-29T06:52:14.279Z,14.77
2018-05-29T06:54:42.571Z,13.80
2018-05-29T06:57:11.799Z,13.17
2018-05-29T06:59:40.324Z,13.63
2018-05-29T07:02:08.955Z,12.70
2018-05-29T07:04:39.674Z,12.83
2018-05-29T07:07:09.100Z,12.63
2018-05-29T07:09:38.178Z,11.80
2018-05-29T07:12:07.142Z,11.77
2018-05-29T07:14:35.763Z,11.77
2018-05-29T07:17:04.567Z,11.83
2018-05-29T07:19:33.962Z,11.60
2018-05-29T07:22:03.015Z,10.47
2018-05-29T07:24:32.671Z,10.53
2018-05-29T07:27:01.317Z,9.47
2018-05-29T07:29:29.462Z,9.57
2018-05-29T07:31:58.563Z,9.90
2018-05-29T07:34:27.587Z,10.30
2018-05-29T07:36:56.610Z,9.13
2018-05-29T07:39:25.222Z,8.83
2018-05-29T07:41:53.687Z,7.53
2018-05-29T07:44:22.143Z,8.80
2018-05-29T07:46:50.290Z,8.80
2018-05-29T07:49:18.986Z,10.43
2018-05-29T07:51:48.138Z,8.80
2018-05-29T07:54:16.768Z,9.10
2018-05-29T07:56:46.129Z,12.00
2018-05-29T07:59:15.282Z,13.23
2018-05-29T08:01:43.442Z,13.73
2018-05-29T08:04:12.022Z,14.60
2018-05-29T08:06:41.174Z,15.47
2018-05-29T08:09:09.332Z,14.83
2018-05-29T08:11:38.015Z,14.47
2018-05-29T08:14:06.195Z,13.97
2018-05-29T08:16:35.056Z,13.50
2018-05-29T08:19:03.796Z,13.20
2018-05-29T08:21:31.983Z,13.77
2018-05-29T08:24:00.435Z,13.50
2018-05-29T08:26:28.856Z,13.30
2018-05-29T08:28:57.027Z,12.00
2018-05-29T08:31:25.214Z,12.57
2018-05-29T08:33:54.016Z,14.53
2018-05-29T08:36:23.160Z,11.93
2018-05-29T08:38:52.425Z,13.57
2018-05-29T08:41:20.950Z,13.60
2018-05-29T08:43:50.378Z,10.67
2018-05-29T08:46:19.677Z,10.07
2018-05-29T08:48:48.199Z,9.50
2018-05-29T08:51:17.275Z,9.53
2018-05-29T08:53:46.574Z,9.87
2018-05-29T08:56:15.137Z,9.20
2018-05-29T08:58:44.287Z,8.73
2018-05-29T09:01:13.438Z,10.20
2018-05-29T09:03:42.428Z,9.83
2018-05-29T09:06:10.974Z,10.70
2018-05-29T09:08:40.165Z,12.13
2018-05-29T09:11:09.321Z,12.77
2018-05-29T09:13:38.544Z,12.40
2018-05-29T09:16:06.996Z,11.63
2018-05-29T09:18:36.135Z,14.00
2018-05-29T09:21:04.331Z,12.13
2018-05-29T09:23:33.095Z,12.77
2018-05-29T09:26:02.307Z,12.10
2018-05-29T09:28:30.431Z,12.60
2018-05-29T09:30:58.986Z,12.40
2018-05-29T09:33:27.370Z,11.43
2018-05-29T09:35:55.933Z,11.70
2018-05-29T09:38:25.026Z,10.87
2018-05-29T09:40:53.506Z,9.63
2018-05-29T09:43:23.067Z,10.33
2018-05-29T09:45:52.378Z,10.13
2018-05-29T09:48:21.022Z,10.57
2018-05-29T09:50:50.429Z,10.30
2018-05-29T09:53:19.581Z,10.60
2018-05-29T09:55:48.018Z,10.40
2018-05-29T09:58:16.974Z,11.43
2018-05-29T10:00:46.398Z,10.87
2018-05-29T10:03:15.382Z,11.67
2018-05-29T10:05:44.286Z,12.63
2018-05-29T10:08:14.290Z,11.40
2018-05-29T10:10:42.813Z,10.93
2018-05-29T10:13:11.463Z,12.67
2018-05-29T10:15:41.013Z,12.60
2018-05-29T10:18:09.434Z,12.20
2018-05-29T10:20:38.575Z,12.10
2018-05-29T10:23:08.994Z,12.30
2018-05-29T10:25:37.623Z,13.03
2018-05-29T10:28:06.149Z,11.97
2018-05-29T10:30:34.539Z,12.40
2018-05-29T10:33:02.991Z,11.53
2018-05-29T10:35:31.583Z,11.67
2018-05-29T10:38:00.155Z,12.43
2018-05-29T10:40:28.343Z,12.23
2018-05-29T10:42:58.082Z,12.27
2018-05-29T10:45:26.735Z,11.67
2018-05-29T10:47:55.189Z,12.03
2018-05-29T10:50:23.350Z,12.47
2018-05-29T10:52:53.081Z,12.50
2018-05-29T10:55:21.258Z,11.83
2018-05-29T10:57:49.451Z,11.00
2018-05-29T11:00:18.135Z,11.40
2018-05-29T11:02:46.869Z,12.53
2018-05-29T11:05:15.031Z,11.07
2018-05-29T11:07:43.218Z,12.77
2018-05-29T11:10:11.415Z,11.80
2018-05-29T11:12:40.363Z,11.40
2018-05-29T11:15:10.226Z,12.27
2018-05-29T11:17:39.485Z,11.50
2018-05-29T11:20:08.064Z,12.03
2018-05-29T11:22:36.159Z,11.53
2018-05-29T11:25:04.747Z,12.60
2018-05-29T11:27:32.931Z,11.13
2018-05-29T11:30:01.380Z,12.60
2018-05-29T11:32:30.082Z,12.47
2018-05-29T11:34:59.905Z,12.33
2018-05-29T11:37:28.837Z,12.03
2018-05-29T11:39:57.468Z,12.07
2018-05-29T11:42:25.912Z,13.03
2018-05-29T11:44:54.051Z,12.23
2018-05-29T11:47:22.235Z,12.10
2018-05-29T11:49:51.455Z,12.57
2018-05-29T11:52:20.506Z,12.47
2018-05-29T11:54:49.045Z,11.37
2018-05-29T11:57:17.203Z,11.80
2018-05-29T11:59:46.182Z,12.47
2018-05-29T12:02:14.427Z,11.13
2018-05-29T12:04:44.324Z,11.90
2018-05-29T12:07:12.386Z,12.30
2018-05-29T12:09:41.751Z,12.73
2018-05-29T12:12:22.194Z,11.90
2018-05-29T12:14:50.415Z,11.97
2018-05-29T12:17:19.767Z,11.33
2018-05-29T12:19:47.922Z,11.97
2018-05-29T12:22:16.480Z,12.53
2018-05-29T12:24:45.136Z,11.90
2018-05-29T12:27:13.557Z,11.83
2018-05-29T12:29:41.978Z,12.90
2018-05-29T12:32:10.608Z,11.20
2018-05-29T12:34:39.030Z,11.00
2018-05-29T12:37:08.183Z,11.50
2018-05-29T12:39:37.544Z,11.57
2018-05-29T12:42:06.700Z,12.13
2018-05-29T12:44:34.886Z,12.03
2018-05-29T12:47:03.735Z,12.37
2018-05-29T12:49:33.109Z,12.83
2018-05-29T12:52:01.707Z,11.53
2018-05-29T12:54:30.579Z,11.90
2018-05-29T12:56:59.103Z,12.40
2018-05-29T12:59:27.258Z,11.53
2018-05-29T13:01:55.843Z,11.70
2018-05-29T13:04:24.006Z,11.47
2018-05-29T13:06:52.203Z,11.77
2018-05-29T13:09:20.764Z,11.90
2018-05-29T13:11:49.000Z,12.33
2018-05-29T13:14:17.607Z,13.00
2018-05-29T13:16:46.297Z,10.90
2018-05-29T13:19:14.419Z,11.73
2018-05-29T13:21:43.838Z,12.20
2018-05-29T13:24:12.978Z,12.50
2018-05-29T13:26:42.143Z,11.90
2018-05-29T13:29:11.095Z,12.53
2018-05-29T13:31:39.323Z,12.90
2018-05-29T13:34:08.963Z,11.53
2018-05-29T13:36:38.251Z,12.53
2018-05-29T13:39:07.607Z,12.33
2018-05-29T13:41:36.013Z,13.17
2018-05-29T13:44:04.434Z,12.80
2018-05-29T13:46:33.030Z,13.10
2018-05-29T13:49:01.347Z,15.83
2018-05-29T13:51:29.770Z,14.83
2018-05-29T13:53:58.174Z,15.27
2018-05-29T13:56:26.434Z,14.70
2018-05-29T13:58:54.962Z,12.87
2018-05-29T14:01:23.123Z,14.90
2018-05-29T14:03:51.315Z,25.43
2018-05-29T14:06:19.914Z,29.93
2018-05-29T14:08:48.961Z,18.13
2018-05-29T14:11:17.382Z,28.37
2018-05-29T14:13:46.083Z,39.40
2018-05-29T14:16:14.315Z,40.23
2018-05-29T14:18:42.963Z,46.70
2018-05-29T14:21:11.554Z,72.43
2018-05-29T14:23:40.507Z,76.53
2018-05-29T14:26:09.163Z,41.80
2018-05-29T14:28:37.323Z,53.50
2018-05-29T14:31:06.323Z,39.63
2018-05-29T14:33:34.845Z,47.30
2018-05-29T14:36:03.114Z,41.07
2018-05-29T14:38:31.652Z,44.17
2018-05-29T14:41:01.468Z,48.80
2018-05-29T14:43:30.828Z,64.57
2018-05-29T14:45:59.655Z,38.57
2018-05-29T14:48:27.846Z,52.10
2018-05-29T14:50:56.927Z,84.67
2018-05-29T14:53:26.289Z,76.10
2018-05-29T14:55:54.708Z,83.30
2018-05-29T14:58:22.877Z,74.07
2018-05-29T15:00:51.750Z,81.17
2018-05-29T15:03:19.962Z,70.23
2018-05-29T15:05:49.125Z,80.57
2018-05-29T15:08:18.069Z,61.23
2018-05-29T15:10:47.224Z,46.60
2018-05-29T15:13:15.852Z,53.70
2018-05-29T15:15:44.900Z,41.70
2018-05-29T15:18:13.948Z,54.10
2018-05-29T15:20:42.116Z,54.10
2018-05-29T15:23:10.332Z,47.60
2018-05-29T15:25:38.970Z,45.53
2018-05-29T15:28:07.163Z,35.53
2018-05-29T15:30:36.399Z,27.60
2018-05-29T15:33:04.998Z,32.43
2018-05-29T15:35:33.159Z,30.67
2018-05-29T15:38:02.351Z,25.40
2018-05-29T15:40:31.329Z,25.83
2018-05-29T15:43:00.002Z,20.87
2018-05-29T15:45:28.670Z,24.50
2018-05-29T15:47:56.870Z,23.30
2018-05-29T15:50:25.513Z,26.70
2018-05-29T15:52:54.730Z,27.13
2018-05-29T15:55:22.918Z,30.10
2018-05-29T15:57:52.448Z,36.93
2018-05-29T16:00:20.934Z,35.57
2018-05-29T16:02:49.131Z,35.07
2018-05-29T16:05:17.716Z,32.80
2018-05-29T16:07:46.619Z,30.30
2018-05-29T16:10:15.251Z,29.50
2018-05-29T16:12:44.671Z,27.43
2018-05-29T16:15:14.009Z,30.67
2018-05-29T16:17:42.379Z,36.93
2018-05-29T16:20:11.259Z,40.73
2018-05-29T16:22:39.899Z,37.93
2018-05-29T16:25:09.012Z,37.90
2018-05-29T16:27:37.577Z,36.37
2018-05-29T16:30:06.798Z,33.13
2018-05-29T16:32:34.997Z,33.87
2018-05-29T16:35:03.889Z,36.37
2018-05-29T16:37:32.412Z,33.70
2018-05-29T16:40:01.356Z,34.00
2018-05-29T16:42:29.950Z,31.73
2018-05-29T16:44:58.615Z,32.40
2018-05-29T16:47:28.591Z,30.30
2018-05-29T16:49:56.991Z,34.87
2018-05-29T16:52:25.831Z,33.10
2018-05-29T16:54:54.638Z,29.90
2018-05-29T16:57:22.791Z,32.03
2018-05-29T16:59:51.858Z,35.67
2018-05-29T17:02:20.894Z,38.37
2018-05-29T17:04:49.102Z,39.27
2018-05-29T17:07:17.749Z,40.50
2018-05-29T17:09:45.902Z,42.73
2018-05-29T17:12:15.531Z,44.70
2018-05-29T17:14:44.164Z,48.40
2018-05-29T17:17:12.687Z,53.40
2018-05-29T17:19:42.053Z,48.27
2018-05-29T17:22:10.211Z,48.43
2018-05-29T17:24:39.831Z,45.20
2018-05-29T17:27:07.995Z,42.00
2018-05-29T17:29:36.207Z,38.43
2018-05-29T17:32:04.891Z,41.43
2018-05-29T17:34:33.042Z,42.27
2018-05-29T17:37:01.259Z,42.50
2018-05-29T17:39:30.147Z,39.40
2018-05-29T17:41:59.095Z,38.50
2018-05-29T17:44:27.252Z,32.43
2018-05-29T17:46:56.111Z,39.27
2018-05-29T17:49:24.334Z,40.40
2018-05-29T17:51:52.988Z,30.83
2018-05-29T17:54:21.412Z,32.07
2018-05-29T17:56:50.039Z,30.07
2018-05-29T17:59:18.669Z,36.90
2018-05-29T18:01:47.300Z,33.47
2018-05-29T18:04:15.721Z,33.30
2018-05-29T18:06:43.882Z,35.17
2018-05-29T18:09:12.083Z,34.77
2018-05-29T18:11:40.307Z,35.77
2018-05-29T18:14:08.952Z,41.20
2018-05-29T18:16:37.034Z,37.37
2018-05-29T18:19:05.231Z,43.03
2018-05-29T18:21:33.938Z,44.87
2018-05-29T18:24:02.569Z,39.47
2018-05-29T18:26:30.723Z,38.30
2018-05-29T18:29:00.351Z,43.00
2018-05-29T18:31:28.877Z,43.77
2018-05-29T18:33:57.925Z,39.53
2018-05-29T18:36:26.451Z,37.80
2018-05-29T18:38:54.976Z,41.23
2018-05-29T18:41:24.315Z,37.97
2018-05-29T18:43:54.226Z,43.07
2018-05-29T18:46:22.850Z,37.47
2018-05-29T18:48:51.047Z,40.23
2018-05-29T18:51:19.602Z,43.87
2018-05-29T18:53:48.730Z,42.53
2018-05-29T18:56:19.043Z,36.00
2018-05-29T18:58:48.447Z,47.53
2018-05-29T19:01:17.034Z,46.53
2018-05-29T19:03:45.197Z,44.33
2018-05-29T19:06:13.877Z,49.13
2018-05-29T19:08:42.042Z,46.00
2018-05-29T19:11:10.933Z,49.73
2018-05-29T19:13:39.118Z,48.67
2018-05-29T19:16:07.563Z,46.10
2018-05-29T19:18:36.598Z,45.47
2018-05-29T19:21:05.658Z,40.00
2018-05-29T19:23:33.843Z,40.90
2018-05-29T19:26:02.035Z,41.07
2018-05-29T19:28:30.611Z,42.57
2018-05-29T19:30:58.771Z,42.10
2018-05-29T19:33:27.451Z,42.20
2018-05-29T19:35:56.597Z,40.90
2018-05-29T19:38:25.742Z,40.37
2018-05-29T19:40:54.177Z,47.87
2018-05-29T19:43:22.599Z,41.67
2018-05-29T19:45:50.878Z,45.17
2018-05-29T19:48:19.090Z,46.23
2018-05-29T19:50:48.177Z,46.27
2018-05-29T19:53:16.912Z,41.40
2018-05-29T19:55:45.095Z,46.00
2018-05-29T19:58:14.692Z,45.50
2018-05-29T20:00:43.472Z,45.43
2018-05-29T20:03:11.815Z,48.80
2018-05-29T20:05:40.687Z,44.20
2018-05-29T20:08:09.527Z,44.47
2018-05-29T20:10:37.682Z,49.43
2018-05-29T20:13:06.775Z,44.33
2018-05-29T20:15:34.975Z,42.47
2018-05-29T20:18:03.200Z,49.40
2018-05-29T20:20:31.603Z,44.50
2018-05-29T20:22:59.786Z,44.63
2018-05-29T20:25:28.475Z,42.37
2018-05-29T20:27:56.703Z,49.13
2018-05-29T20:30:25.287Z,45.57
2018-05-29T20:32:53.740Z,44.30
2018-05-29T20:35:21.903Z,36.00
2018-05-29T20:37:50.086Z,34.73
2018-05-29T20:40:19.487Z,32.03
2018-05-29T20:42:48.014Z,27.03
2018-05-29T20:45:17.190Z,26.67
2018-05-29T20:47:45.624Z,22.70
2018-05-29T20:50:14.871Z,18.60
2018-05-29T20:52:43.054Z,17.27
2018-05-29T20:55:11.686Z,19.23
2018-05-29T20:57:39.881Z,18.10
2018-05-29T21:00:08.462Z,18.33
2018-05-29T21:02:36.618Z,17.97
2018-05-29T21:05:05.514Z,18.20
2018-05-29T21:07:34.770Z,16.80
2018-05-29T21:10:03.915Z,15.80
2018-05-29T21:12:33.824Z,16.57
2018-05-29T21:15:03.797Z,17.20
2018-05-29T21:17:33.458Z,18.37
2018-05-29T21:20:02.099Z,16.53
2018-05-29T21:22:30.520Z,15.03
2018-05-29T21:24:59.852Z,16.93
2018-05-29T21:27:28.036Z,15.10
2018-05-29T21:29:56.516Z,17.43
2018-05-29T21:32:24.843Z,19.27
2018-05-29T21:34:54.495Z,16.03
2018-05-29T21:37:22.686Z,15.47
2018-05-29T21:39:50.911Z,14.73
2018-05-29T21:42:19.102Z,13.73
2018-05-29T21:44:47.671Z,15.90
2018-05-29T21:47:16.711Z,14.57
2018-05-29T21:49:45.130Z,17.23
2018-05-29T21:52:13.666Z,15.27
2018-05-29T21:54:42.167Z,16.83
2018-05-29T21:57:10.822Z,18.07
2018-05-29T21:59:39.975Z,17.50
2018-05-29T22:02:08.907Z,16.10
2018-05-29T22:04:37.098Z,16.13
2018-05-29T22:07:05.762Z,16.83
2018-05-29T22:09:34.913Z,15.50
2018-05-29T22:12:04.055Z,13.97
2018-05-29T22:14:33.207Z,14.77
2018-05-29T22:17:01.815Z,14.80
2018-05-29T22:19:30.478Z,14.90
2018-05-29T22:21:58.640Z,15.13
2018-05-29T22:24:26.859Z,14.63
2018-05-29T22:26:55.532Z,14.20
2018-05-29T22:29:24.163Z,13.83
2018-05-29T22:31:52.688Z,14.77
2018-05-29T22:34:20.843Z,15.87
2018-05-29T22:36:49.949Z,14.57
2018-05-29T22:39:18.180Z,12.70
2018-05-29T22:41:46.760Z,14.80
2018-05-29T22:44:15.840Z,14.83
2018-05-29T22:46:44.026Z,13.37
2018-05-29T22:49:13.019Z,13.43
2018-05-29T22:51:42.015Z,15.03
2018-05-29T22:54:10.782Z,14.37
2018-05-29T22:56:39.190Z,14.87
2018-05-29T22:59:09.594Z,16.03
2018-05-29T23:01:37.788Z,14.00
2018-05-29T23:04:06.345Z,14.50
2018-05-29T23:06:34.978Z,14.17
2018-05-29T23:09:03.499Z,14.23
2018-05-29T23:11:31.664Z,15.50
2018-05-29T23:13:59.878Z,14.60
2018-05-29T23:16:28.763Z,16.83
2018-05-29T23:18:57.054Z,15.67
2018-05-29T23:21:25.606Z,14.30
2018-05-29T23:23:54.111Z,15.70
2018-05-29T23:26:22.761Z,15.70
2018-05-29T23:28:51.286Z,17.63
2018-05-29T23:31:19.563Z,19.43
2018-05-29T23:33:48.751Z,19.07
2018-05-29T23:36:16.942Z,19.27
2018-05-29T23:38:45.808Z,19.87
2018-05-29T23:41:14.438Z,22.17
2018-05-29T23:43:42.598Z,19.00
2018-05-29T23:46:11.802Z,21.80
2018-05-29T23:48:40.084Z,18.70
2018-05-29T23:51:09.154Z,17.53
2018-05-29T23:53:39.144Z,19.63
2018-05-29T23:56:07.788Z,20.20
2018-05-29T23:58:36.613Z,19.67
